createdAt,value
2022-10-20T01:29:49.614Z,65.69
2022-10-20T01:32:46.679Z,65.19
2022-10-20T01:35:45.912Z,65.76
2022-10-20T01:38:18.104Z,65.22
2022-10-20T01:40:54.234Z,64.97
2022-10-20T01:43:24.481Z,65.02
2022-10-20T01:45:53.753Z,65.68
2022-10-20T01:48:25.582Z,65.08
2022-10-20T01:50:52.439Z,65.24
2022-10-20T01:53:20.188Z,64.97
2022-10-20T01:55:50.777Z,65.54
2022-10-20T01:58:29.408Z,65.40
2022-10-20T02:01:17.177Z,65.73
2022-10-20T02:03:53.370Z,65.49
2022-10-20T02:06:41.236Z,65.47
2022-10-20T02:09:15.700Z,65.62
2022-10-20T02:11:48.735Z,66.14
2022-10-20T02:14:18.616Z,65.80
2022-10-20T02:16:49.999Z,67.02
2022-10-20T02:19:19.400Z,67.13
2022-10-20T02:21:47.342Z,67.07
2022-10-20T02:24:15.882Z,66.72
2022-10-20T02:26:43.706Z,67.33
2022-10-20T02:29:24.984Z,67.21
2022-10-20T02:31:51.930Z,67.63
2022-10-20T02:34:18.560Z,68.68
2022-10-20T02:36:45.402Z,69.71
2022-10-20T02:39:12.398Z,69.63
2022-10-20T02:41:38.963Z,70.63
2022-10-20T02:44:05.632Z,71.19
2022-10-20T02:46:32.172Z,71.33
2022-10-20T02:48:58.751Z,72.13
2022-10-20T02:51:25.326Z,72.39
2022-10-20T02:53:51.876Z,72.20
2022-10-20T02:56:18.813Z,72.31
2022-10-20T02:58:45.601Z,72.26
2022-10-20T03:01:12.176Z,72.49
2022-10-20T03:03:38.695Z,72.84
2022-10-20T03:06:13.625Z,72.79
2022-10-20T03:08:41.384Z,73.78
2022-10-20T03:11:08.395Z,73.10
2022-10-20T03:13:35.053Z,73.93
2022-10-20T03:16:02.498Z,73.60
2022-10-20T03:18:29.037Z,74.20
2022-10-20T03:20:55.597Z,74.30
2022-10-20T03:23:22.285Z,74.11
2022-10-20T03:25:48.809Z,74.75
2022-10-20T03:28:15.710Z,75.26
2022-10-20T03:30:42.519Z,75.15
2022-10-20T03:33:09.065Z,75.81
2022-10-20T03:35:35.615Z,75.84
2022-10-20T03:38:02.113Z,75.38
2022-10-20T03:40:28.673Z,76.63
2022-10-20T03:42:55.194Z,76.80
2022-10-20T03:45:21.716Z,77.14
2022-10-20T03:47:48.451Z,77.59
2022-10-20T03:50:15.056Z,77.45
2022-10-20T03:52:41.575Z,78.07
2022-10-20T03:55:08.696Z,78.08
2022-10-20T03:57:35.603Z,78.76
2022-10-20T04:00:02.367Z,78.80
2022-10-20T04:02:35.271Z,79.05
2022-10-20T04:05:02.141Z,79.61
2022-10-20T04:07:28.636Z,79.35
2022-10-20T04:09:56.119Z,79.79
2022-10-20T04:12:23.377Z,79.37
2022-10-20T04:14:50.307Z,79.85
2022-10-20T04:17:17.029Z,79.98
2022-10-20T04:19:43.578Z,80.30
2022-10-20T04:22:10.080Z,80.35
2022-10-20T04:24:36.631Z,80.28
2022-10-20T04:27:03.424Z,80.38
2022-10-20T04:29:29.962Z,79.94
2022-10-20T04:31:56.566Z,80.37
2022-10-20T04:34:23.153Z,79.79
2022-10-20T04:36:50.023Z,80.81
2022-10-20T04:39:16.754Z,80.49
2022-10-20T04:41:43.395Z,80.54
2022-10-20T04:44:10.053Z,80.28
2022-10-20T04:46:36.561Z,80.54
2022-10-20T04:49:04.149Z,80.61
2022-10-20T04:51:30.721Z,80.31
2022-10-20T04:53:57.402Z,80.80
2022-10-20T04:56:23.995Z,80.79
2022-10-20T04:58:52.302Z,79.88
2022-10-20T05:01:20.234Z,79.55
2022-10-20T05:03:47.156Z,79.47
2022-10-20T05:06:16.364Z,78.91
2022-10-20T05:08:46.659Z,79.26
2022-10-20T05:11:14.451Z,79.80
2022-10-20T05:13:41.535Z,80.44
2022-10-20T05:16:09.234Z,80.52
2022-10-20T05:18:36.199Z,80.43
2022-10-20T05:21:11.287Z,80.40
2022-10-20T05:23:39.375Z,80.20
2022-10-20T05:26:17.407Z,80.68
2022-10-20T05:28:46.380Z,80.92
2022-10-20T05:31:14.141Z,81.25
2022-10-20T05:33:45.618Z,81.06
2022-10-20T05:36:19.302Z,80.51
2022-10-20T05:38:49.404Z,80.14
2022-10-20T05:41:18.424Z,79.79
2022-10-20T05:43:49.899Z,80.19
2022-10-20T05:46:17.615Z,79.12
2022-10-20T05:48:44.803Z,79.28
2022-10-20T05:51:17.550Z,78.74
2022-10-20T05:53:45.179Z,78.60
2022-10-20T05:56:15.035Z,78.88
2022-10-20T05:58:42.961Z,78.40
2022-10-20T06:01:11.335Z,78.32
2022-10-20T06:03:37.899Z,78.40
2022-10-20T06:06:04.788Z,78.44
2022-10-20T06:08:33.376Z,78.27
2022-10-20T06:11:09.151Z,78.31
2022-10-20T06:13:35.933Z,78.24
2022-10-20T06:16:14.655Z,78.01
2022-10-20T06:18:43.822Z,77.46
2022-10-20T06:21:13.568Z,77.37
2022-10-20T06:23:40.373Z,76.89
2022-10-20T06:26:17.648Z,76.35
2022-10-20T06:28:45.532Z,76.85
2022-10-20T06:31:15.731Z,76.70
2022-10-20T06:33:42.770Z,76.51
2022-10-20T06:36:10.481Z,76.79
2022-10-20T06:38:37.253Z,76.23
2022-10-20T06:41:05.253Z,75.30
2022-10-20T06:43:32.061Z,75.07
2022-10-20T06:46:00.590Z,74.81
2022-10-20T06:48:28.194Z,74.27
2022-10-20T06:50:59.402Z,74.75
2022-10-20T06:53:27.611Z,73.52
2022-10-20T06:56:02.345Z,73.30
2022-10-20T06:58:29.864Z,73.60
2022-10-20T07:01:16.983Z,72.38
2022-10-20T07:03:46.023Z,72.47
2022-10-20T07:06:39.937Z,71.61
2022-10-20T07:09:08.537Z,72.46
2022-10-20T07:11:35.606Z,72.81
2022-10-20T07:14:02.899Z,72.72
2022-10-20T07:16:32.015Z,71.97
2022-10-20T07:18:59.658Z,70.78
2022-10-20T07:21:32.408Z,70.72
2022-10-20T07:24:05.471Z,69.42
2022-10-20T07:26:34.975Z,68.96
2022-10-20T07:29:02.899Z,69.09
2022-10-20T07:31:36.188Z,68.91
2022-10-20T07:34:23.408Z,68.24
2022-10-20T07:36:51.382Z,67.70
2022-10-20T07:39:17.886Z,67.96
2022-10-20T07:41:47.176Z,67.22
2022-10-20T07:44:13.868Z,67.02
2022-10-20T07:46:40.460Z,67.00
2022-10-20T07:49:31.381Z,66.63
2022-10-20T07:51:53.512Z,66.84
2022-10-20T07:54:20.143Z,66.20
2022-10-20T07:56:46.749Z,66.14
2022-10-20T07:59:14.287Z,66.45
2022-10-20T08:01:41.235Z,65.08
2022-10-20T08:04:07.867Z,65.79
2022-10-20T08:06:34.475Z,64.97
2022-10-20T08:09:01.650Z,64.93
2022-10-20T08:11:28.372Z,63.72
2022-10-20T08:13:54.948Z,63.65
2022-10-20T08:16:35.508Z,64.16
2022-10-20T08:19:07.900Z,63.63
2022-10-20T08:21:34.599Z,62.66
2022-10-20T08:24:02.772Z,61.86
2022-10-20T08:26:29.462Z,61.10
2022-10-20T08:28:56.050Z,61.47
2022-10-20T08:31:23.336Z,61.60
2022-10-20T08:33:52.926Z,60.63
2022-10-20T08:36:20.406Z,61.72
2022-10-20T08:38:46.990Z,61.29
2022-10-20T08:41:38.772Z,60.40
2022-10-20T08:44:27.206Z,61.04
2022-10-20T08:46:54.040Z,60.25
2022-10-20T08:49:25.152Z,60.31
2022-10-20T08:51:51.810Z,59.73
2022-10-20T08:54:18.821Z,58.91
2022-10-20T08:56:46.395Z,58.80
2022-10-20T08:59:44.293Z,58.28
2022-10-20T09:02:16.826Z,57.68
2022-10-20T09:04:56.561Z,58.22
2022-10-20T09:07:29.025Z,56.99
2022-10-20T09:10:16.674Z,56.54
2022-10-20T09:12:45.911Z,55.83
2022-10-20T09:15:15.113Z,56.10
2022-10-20T09:18:04.043Z,55.81
2022-10-20T09:20:37.531Z,56.07
2022-10-20T09:23:07.800Z,56.12
2022-10-20T09:25:44.097Z,55.75
2022-10-20T09:28:50.398Z,54.67
2022-10-20T09:31:35.320Z,55.38
2022-10-20T09:34:02.019Z,55.42
2022-10-20T09:36:34.002Z,54.89
2022-10-20T09:39:01.280Z,55.00
2022-10-20T09:41:32.070Z,54.64
2022-10-20T09:44:09.144Z,54.40
2022-10-20T09:46:45.444Z,54.89
2022-10-20T09:49:32.276Z,54.20
2022-10-20T09:52:00.276Z,53.58
2022-10-20T09:54:29.598Z,53.60
2022-10-20T09:57:16.649Z,52.99
2022-10-20T09:59:46.993Z,53.38
2022-10-20T10:02:13.492Z,52.62
2022-10-20T10:04:42.437Z,53.24
2022-10-20T10:07:26.972Z,52.89
2022-10-20T10:10:00.347Z,52.97
2022-10-20T10:12:30.915Z,53.34
2022-10-20T10:15:06.239Z,53.35
2022-10-20T10:17:36.125Z,53.13
2022-10-20T10:20:23.214Z,52.64
2022-10-20T10:22:49.860Z,52.23
2022-10-20T10:25:30.306Z,52.14
2022-10-20T10:27:58.481Z,52.69
2022-10-20T10:30:28.104Z,52.73
2022-10-20T10:32:55.156Z,52.58
2022-10-20T10:35:31.127Z,52.12
2022-10-20T10:37:58.824Z,51.23
2022-10-20T10:40:57.895Z,50.27
2022-10-20T10:43:39.608Z,50.33
2022-10-20T10:46:08.659Z,50.39
2022-10-20T10:49:08.466Z,49.49
2022-10-20T10:51:50.247Z,49.78
2022-10-20T10:54:44.401Z,49.58
2022-10-20T10:57:23.830Z,49.02
2022-10-20T10:59:52.639Z,48.55
2022-10-20T11:02:37.803Z,49.28
2022-10-20T11:06:18.288Z,49.16
2022-10-20T11:09:12.511Z,48.59
2022-10-20T11:11:42.444Z,48.06
2022-10-20T11:14:37.696Z,48.04
2022-10-20T11:17:22.839Z,47.50
2022-10-20T11:20:04.254Z,46.87
2022-10-20T11:22:36.690Z,46.82
2022-10-20T11:25:40.879Z,46.93
2022-10-20T11:28:44.272Z,46.95
2022-10-20T11:31:36.146Z,46.50
2022-10-20T11:34:24.144Z,46.78
2022-10-20T11:37:02.404Z,46.28
2022-10-20T11:39:52.804Z,46.93
2022-10-20T11:42:58.048Z,46.83
2022-10-20T11:45:24.504Z,46.36
2022-10-20T11:48:15.107Z,46.38
2022-10-20T11:50:48.715Z,46.35
2022-10-20T11:53:39.120Z,46.09
2022-10-20T11:56:47.363Z,46.54
2022-10-20T11:59:16.627Z,46.12
2022-10-20T12:02:10.343Z,46.05
2022-10-20T12:04:59.591Z,46.28
2022-10-20T12:07:37.981Z,46.02
2022-10-20T12:10:43.509Z,46.24
2022-10-20T12:13:33.979Z,46.23
2022-10-20T12:16:00.686Z,45.90
2022-10-20T12:18:35.203Z,46.76
2022-10-20T12:21:03.989Z,46.04
2022-10-20T12:23:45.799Z,46.52
2022-10-20T12:26:41.153Z,46.56
2022-10-20T12:29:32.663Z,46.44
2022-10-20T12:32:39.488Z,47.20
2022-10-20T12:35:12.535Z,47.21
2022-10-20T12:37:42.229Z,46.81
2022-10-20T12:40:11.309Z,47.06
2022-10-20T12:42:48.214Z,47.32
2022-10-20T12:45:20.712Z,47.49
2022-10-20T12:48:02.069Z,47.05
2022-10-20T12:50:46.986Z,47.33
2022-10-20T12:53:19.007Z,47.24
2022-10-20T12:55:57.571Z,46.60
2022-10-20T12:58:24.099Z,46.88
2022-10-20T13:00:53.591Z,47.51
2022-10-20T13:03:36.512Z,47.39
2022-10-20T13:06:22.936Z,47.56
2022-10-20T13:09:04.830Z,47.09
2022-10-20T13:11:37.759Z,46.94
2022-10-20T13:14:13.486Z,47.22
2022-10-20T13:16:58.318Z,46.72
2022-10-20T13:19:39.195Z,46.72
2022-10-20T13:22:32.797Z,46.57
2022-10-20T13:25:01.682Z,46.20
2022-10-20T13:27:29.523Z,46.39
2022-10-20T13:29:56.292Z,45.99
2022-10-20T13:32:43.528Z,45.73
2022-10-20T13:35:34.511Z,45.96
2022-10-20T13:38:19.758Z,45.73
2022-10-20T13:41:16.467Z,45.86
2022-10-20T13:44:04.447Z,46.11
2022-10-20T13:46:46.857Z,45.97
2022-10-20T13:49:51.890Z,45.70
2022-10-20T13:52:21.597Z,45.77
2022-10-20T13:54:51.227Z,46.13
2022-10-20T13:57:34.885Z,45.79
2022-10-20T14:00:22.842Z,46.06
2022-10-20T14:03:02.373Z,46.50
2022-10-20T14:05:36.371Z,46.33
2022-10-20T14:08:08.699Z,46.59
2022-10-20T14:11:08.513Z,47.21
2022-10-20T14:13:36.421Z,47.23
2022-10-20T14:16:07.395Z,47.27
2022-10-20T14:18:39.509Z,47.37
2022-10-20T14:21:14.481Z,47.73
2022-10-20T14:23:44.053Z,48.02
2022-10-20T14:26:16.745Z,48.04
2022-10-20T14:28:44.088Z,49.12
2022-10-20T14:31:11.978Z,50.56
2022-10-20T14:33:44.562Z,50.48
2022-10-20T14:36:24.013Z,51.19
2022-10-20T14:38:53.791Z,51.15
2022-10-20T14:41:31.561Z,52.48
2022-10-20T14:44:09.313Z,52.29
2022-10-20T14:46:45.150Z,53.19
2022-10-20T14:49:17.935Z,52.90
2022-10-20T14:51:59.122Z,53.23
2022-10-20T14:54:31.553Z,54.47
2022-10-20T14:57:10.462Z,53.83
2022-10-20T14:59:50.234Z,52.87
2022-10-20T15:02:20.831Z,53.65
2022-10-20T15:04:49.002Z,53.94
2022-10-20T15:07:23.093Z,53.73
2022-10-20T15:09:51.087Z,54.05
2022-10-20T15:12:19.699Z,54.08
2022-10-20T15:14:50.097Z,54.52
2022-10-20T15:18:12.495Z,53.92
2022-10-20T15:20:43.760Z,53.93
2022-10-20T15:23:13.960Z,54.06
2022-10-20T15:25:55.899Z,54.04
2022-10-20T15:28:27.838Z,54.64
2022-10-20T15:30:54.547Z,54.64
2022-10-20T15:33:21.398Z,54.86
2022-10-20T15:35:48.479Z,55.36
2022-10-20T15:38:15.459Z,55.65
2022-10-20T15:40:42.758Z,55.56
2022-10-20T15:43:17.597Z,55.76
2022-10-20T15:45:47.920Z,56.41
2022-10-20T15:48:14.569Z,56.48
2022-10-20T15:50:41.684Z,56.51
2022-10-20T15:53:10.186Z,56.45
2022-10-20T15:55:41.022Z,57.36
2022-10-20T15:58:07.551Z,56.89
2022-10-20T16:00:34.570Z,57.82
2022-10-20T16:03:01.201Z,57.42
2022-10-20T16:05:28.102Z,57.30
2022-10-20T16:07:55.425Z,57.88
2022-10-20T16:10:24.838Z,57.75
2022-10-20T16:12:51.777Z,58.74
2022-10-20T16:15:18.815Z,58.97
2022-10-20T16:17:46.467Z,59.00
2022-10-20T16:20:13.680Z,59.31
2022-10-20T16:22:40.387Z,60.67
2022-10-20T16:25:07.352Z,60.87
2022-10-20T16:27:34.482Z,60.51
2022-10-20T16:30:01.724Z,61.48
2022-10-20T16:32:32.950Z,61.57
2022-10-20T16:35:02.279Z,61.22
2022-10-20T16:37:30.807Z,62.02
2022-10-20T16:39:57.741Z,62.05
2022-10-20T16:42:24.326Z,62.31
2022-10-20T16:44:50.839Z,62.55
2022-10-20T16:47:17.415Z,63.02
2022-10-20T16:49:43.943Z,62.50
2022-10-20T16:52:10.446Z,63.39
2022-10-20T16:54:37.963Z,63.17
2022-10-20T16:57:07.321Z,63.14
2022-10-20T16:59:33.878Z,63.83
2022-10-20T17:02:00.418Z,64.51
2022-10-20T17:04:26.991Z,64.53
2022-10-20T17:06:53.492Z,64.74
2022-10-20T17:09:20.136Z,64.76
2022-10-20T17:11:46.649Z,64.59
2022-10-20T17:14:13.226Z,65.04
2022-10-20T17:16:40.306Z,65.62
2022-10-20T17:19:06.945Z,65.58
2022-10-20T17:21:34.976Z,65.49
2022-10-20T17:24:01.856Z,65.71
2022-10-20T17:26:30.855Z,65.55
2022-10-20T17:29:00.186Z,66.07
2022-10-20T17:31:27.768Z,65.74
2022-10-20T17:33:55.773Z,66.40
2022-10-20T17:36:26.230Z,65.98
2022-10-20T17:38:57.664Z,65.76
2022-10-20T17:41:24.636Z,65.95
2022-10-20T17:43:51.779Z,66.70
2022-10-20T17:46:19.568Z,67.16
2022-10-20T17:48:46.653Z,66.61
2022-10-20T17:51:21.711Z,67.16
2022-10-20T17:53:50.544Z,67.12
2022-10-20T17:56:23.197Z,67.34
2022-10-20T17:58:51.285Z,66.86
2022-10-20T18:01:20.108Z,67.39
2022-10-20T18:03:48.832Z,67.46
2022-10-20T18:06:18.381Z,67.58
2022-10-20T18:08:45.874Z,68.10
2022-10-20T18:11:18.217Z,67.98
2022-10-20T18:13:45.520Z,68.34
2022-10-20T18:16:15.592Z,67.97
2022-10-20T18:18:42.554Z,68.63
2022-10-20T18:21:11.445Z,68.68
2022-10-20T18:23:40.352Z,68.61
2022-10-20T18:26:09.662Z,69.45
2022-10-20T18:28:36.766Z,69.14
2022-10-20T18:31:08.985Z,69.45
2022-10-20T18:33:36.074Z,68.84
2022-10-20T18:36:07.268Z,69.73
2022-10-20T18:38:38.754Z,69.78
2022-10-20T18:41:14.425Z,69.95
2022-10-20T18:43:41.896Z,69.72
2022-10-20T18:46:10.193Z,70.35
2022-10-20T18:48:38.243Z,70.51
2022-10-20T18:51:06.795Z,70.81
2022-10-20T18:53:34.897Z,70.62
2022-10-20T18:56:06.546Z,70.42
2022-10-20T18:58:38.414Z,70.69
2022-10-20T19:01:12.129Z,70.58
2022-10-20T19:03:39.863Z,70.34
2022-10-20T19:06:12.216Z,70.36
2022-10-20T19:08:40.171Z,70.00
2022-10-20T19:11:11.271Z,70.09
2022-10-20T19:13:38.133Z,70.51
2022-10-20T19:16:15.664Z,71.17
2022-10-20T19:18:45.467Z,70.57
2022-10-20T19:21:12.554Z,70.93
2022-10-20T19:23:44.221Z,71.22
2022-10-20T19:26:17.587Z,70.99
2022-10-20T19:28:47.746Z,71.18
2022-10-20T19:31:20.952Z,70.88
2022-10-20T19:33:50.517Z,71.94
2022-10-20T19:36:17.794Z,71.21
2022-10-20T19:38:44.423Z,71.01
2022-10-20T19:41:11.194Z,71.07
2022-10-20T19:43:38.593Z,71.36
2022-10-20T19:46:06.736Z,72.05
2022-10-20T19:48:35.145Z,71.49
2022-10-20T19:51:01.837Z,71.57
2022-10-20T19:53:28.379Z,72.03
2022-10-20T19:55:55.033Z,72.26
2022-10-20T19:58:22.083Z,72.51
2022-10-20T20:00:51.978Z,72.29
2022-10-20T20:03:19.315Z,73.11
2022-10-20T20:05:48.268Z,72.69
2022-10-20T20:08:15.141Z,73.09
2022-10-20T20:10:51.105Z,72.82
2022-10-20T20:13:17.654Z,72.85
2022-10-20T20:15:44.521Z,72.92
2022-10-20T20:18:13.077Z,73.12
2022-10-20T20:20:44.235Z,73.04
2022-10-20T20:23:11.087Z,72.84
2022-10-20T20:25:42.876Z,72.87
2022-10-20T20:28:10.378Z,72.94
2022-10-20T20:30:37.500Z,72.29
2022-10-20T20:33:04.969Z,72.24
2022-10-20T20:35:31.547Z,71.91
2022-10-20T20:37:58.040Z,72.26
2022-10-20T20:40:24.599Z,72.68
2022-10-20T20:42:51.172Z,72.65
2022-10-20T20:45:17.871Z,72.37
2022-10-20T20:47:46.745Z,72.46
2022-10-20T20:50:13.583Z,72.57
2022-10-20T20:52:40.110Z,71.99
2022-10-20T20:55:07.021Z,71.94
2022-10-20T20:57:33.517Z,72.38
2022-10-20T21:00:00.026Z,71.66
2022-10-20T21:02:26.509Z,71.95
2022-10-20T21:04:53.219Z,71.90
2022-10-20T21:07:19.818Z,71.53
2022-10-20T21:09:46.322Z,71.36
2022-10-20T21:14:44.475Z,71.86
2022-10-20T21:17:11.116Z,71.58
2022-10-20T21:19:38.061Z,71.63
2022-10-20T21:22:04.593Z,71.65
2022-10-20T21:24:31.161Z,71.59
2022-10-20T21:26:57.764Z,71.63
2022-10-20T21:29:24.458Z,70.59
2022-10-20T21:31:50.972Z,71.84
2022-10-20T21:34:17.489Z,70.74
2022-10-20T21:36:43.983Z,70.51
2022-10-20T21:39:15.931Z,70.55
2022-10-20T21:41:43.931Z,70.05
2022-10-20T21:44:12.620Z,70.88
2022-10-20T21:46:43.837Z,70.60
2022-10-20T21:49:13.534Z,70.85
2022-10-20T21:51:49.241Z,70.62
2022-10-20T21:54:18.742Z,70.94
2022-10-20T21:56:47.100Z,70.69
2022-10-20T21:59:22.472Z,70.87
2022-10-20T22:01:49.464Z,71.07
2022-10-20T22:04:16.776Z,70.89
2022-10-20T22:06:43.301Z,70.98
2022-10-20T22:09:12.107Z,70.49
2022-10-20T22:11:43.276Z,70.94
2022-10-20T22:14:10.232Z,70.52
2022-10-20T22:16:39.296Z,70.45
2022-10-20T22:19:08.777Z,70.98
2022-10-20T22:21:41.238Z,70.34
2022-10-20T22:24:08.237Z,70.42
2022-10-20T22:26:35.394Z,70.42
2022-10-20T22:29:02.810Z,71.57
2022-10-20T22:31:29.543Z,70.99
2022-10-20T22:33:58.344Z,70.83
2022-10-20T22:36:26.091Z,70.29
2022-10-20T22:38:52.758Z,71.10
2022-10-20T22:41:19.277Z,71.32
2022-10-20T22:43:46.131Z,71.23
2022-10-20T22:46:12.843Z,71.80
2022-10-20T22:48:39.460Z,71.24
2022-10-20T22:51:08.382Z,72.02
2022-10-20T22:53:36.163Z,72.21
2022-10-20T22:56:18.848Z,71.39
2022-10-20T22:58:46.417Z,71.31
2022-10-20T23:01:23.696Z,72.25
2022-10-20T23:03:50.939Z,72.04
2022-10-20T23:06:20.976Z,72.40
2022-10-20T23:08:50.744Z,71.23
2022-10-20T23:11:18.457Z,71.80
2022-10-20T23:13:45.922Z,71.82
2022-10-20T23:16:12.784Z,72.16
2022-10-20T23:18:39.590Z,72.27
2022-10-20T23:21:06.816Z,72.49
2022-10-20T23:23:37.869Z,72.50
2022-10-20T23:26:06.520Z,72.56
2022-10-20T23:28:34.198Z,72.51
2022-10-20T23:31:14.098Z,73.23
2022-10-20T23:33:42.351Z,73.39
2022-10-20T23:36:10.588Z,72.71
2022-10-20T23:38:37.156Z,72.96
2022-10-20T23:41:04.366Z,72.53
2022-10-20T23:43:31.695Z,72.84
2022-10-20T23:45:58.394Z,73.22
2022-10-20T23:48:25.856Z,72.93
2022-10-20T23:50:53.154Z,73.65
2022-10-20T23:53:19.776Z,73.16
2022-10-20T23:55:47.857Z,73.39
2022-10-20T23:58:14.552Z,73.42
